sensor_id;sensor_type;location;lat;lon;timestamp;temperature;humidity
27384;DHT22;14851;51.166;4.760;2024-03-06T00:00:38;7.60;99.90
27384;DHT22;14851;51.166;4.760;2024-03-06T00:03:04;7.60;99.90
27384;DHT22;14851;51.166;4.760;2024-03-06T00:05:30;7.60;99.90
27384;DHT22;14851;51.166;4.760;2024-03-06T00:07:58;7.50;99.90
27384;DHT22;14851;51.166;4.760;2024-03-06T00:10:26;7.50;99.90
27384;DHT22;14851;51.166;4.760;2024-03-06T00:12:52;7.40;99.90
27384;DHT22;14851;51.166;4.760;2024-03-06T00:15:20;7.40;99.90
27384;DHT22;14851;51.166;4.760;2024-03-06T00:17:49;7.40;99.90
27384;DHT22;14851;51.166;4.760;2024-03-06T00:20:15;7.40;99.90
27384;DHT22;14851;51.166;4.760;2024-03-06T00:22:41;7.40;99.90
27384;DHT22;14851;51.166;4.760;2024-03-06T00:25:07;7.30;99.90
27384;DHT22;14851;51.166;4.760;2024-03-06T00:27:36;7.30;99.90
27384;DHT22;14851;51.166;4.760;2024-03-06T00:30:02;7.20;99.90
27384;DHT22;14851;51.166;4.760;2024-03-06T00:32:28;7.20;99.90
27384;DHT22;14851;51.166;4.760;2024-03-06T00:34:55;7.10;99.90
27384;DHT22;14851;51.166;4.760;2024-03-06T00:37:21;7.10;99.90
27384;DHT22;14851;51.166;4.760;2024-03-06T00:39:47;7.10;99.90
27384;DHT22;14851;51.166;4.760;2024-03-06T00:42:17;7.00;99.90
27384;DHT22;14851;51.166;4.760;2024-03-06T00:44:43;7.00;99.90
27384;DHT22;14851;51.166;4.760;2024-03-06T00:47:09;7.00;99.90
27384;DHT22;14851;51.166;4.760;2024-03-06T00:49:35;6.90;99.90
27384;DHT22;14851;51.166;4.760;2024-03-06T00:52:01;6.80;99.90
27384;DHT22;14851;51.166;4.760;2024-03-06T00:54:27;6.80;99.90
27384;DHT22;14851;51.166;4.760;2024-03-06T00:56:53;6.90;99.90
27384;DHT22;14851;51.166;4.760;2024-03-06T00:59:19;6.80;99.90
27384;DHT22;14851;51.166;4.760;2024-03-06T01:01:47;6.70;99.90
27384;DHT22;14851;51.166;4.760;2024-03-06T01:04:13;6.70;99.90
27384;DHT22;14851;51.166;4.760;2024-03-06T01:06:39;6.60;99.90
27384;DHT22;14851;51.166;4.760;2024-03-06T01:09:05;6.50;99.90
27384;DHT22;14851;51.166;4.760;2024-03-06T01:11:40;6.50;99.90
27384;DHT22;14851;51.166;4.760;2024-03-06T01:14:05;6.50;99.90
27384;DHT22;14851;51.166;4.760;2024-03-06T01:16:31;6.40;99.90
27384;DHT22;14851;51.166;4.760;2024-03-06T01:18:58;6.40;99.90
27384;DHT22;14851;51.166;4.760;2024-03-06T01:21:24;6.40;99.90
27384;DHT22;14851;51.166;4.760;2024-03-06T01:23:50;6.30;99.90
27384;DHT22;14851;51.166;4.760;2024-03-06T01:26:15;6.20;99.90
27384;DHT22;14851;51.166;4.760;2024-03-06T01:28:42;6.20;99.90
27384;DHT22;14851;51.166;4.760;2024-03-06T01:31:10;6.20;99.90
27384;DHT22;14851;51.166;4.760;2024-03-06T01:33:36;6.10;99.90
27384;DHT22;14851;51.166;4.760;2024-03-06T01:36:02;6.10;99.90
27384;DHT22;14851;51.166;4.760;2024-03-06T01:38:28;6.00;99.90
27384;DHT22;14851;51.166;4.760;2024-03-06T01:40:54;5.90;99.90
27384;DHT22;14851;51.166;4.760;2024-03-06T01:43:23;5.90;99.90
27384;DHT22;14851;51.166;4.760;2024-03-06T01:45:51;5.90;99.90
27384;DHT22;14851;51.166;4.760;2024-03-06T01:48:24;5.80;99.90
27384;DHT22;14851;51.166;4.760;2024-03-06T01:50:56;5.80;99.90
27384;DHT22;14851;51.166;4.760;2024-03-06T01:53:22;5.80;99.90
27384;DHT22;14851;51.166;4.760;2024-03-06T01:55:52;5.80;99.90
27384;DHT22;14851;51.166;4.760;2024-03-06T01:58:18;5.70;99.90
27384;DHT22;14851;51.166;4.760;2024-03-06T02:00:47;5.60;99.90
27384;DHT22;14851;51.166;4.760;2024-03-06T02:03:16;5.60;99.90
27384;DHT22;14851;51.166;4.760;2024-03-06T02:05:43;5.50;99.90
27384;DHT22;14851;51.166;4.760;2024-03-06T02:08:09;5.50;99.90
27384;DHT22;14851;51.166;4.760;2024-03-06T02:10:34;5.50;99.90
27384;DHT22;14851;51.166;4.760;2024-03-06T02:13:00;5.50;99.90
27384;DHT22;14851;51.166;4.760;2024-03-06T02:15:26;5.40;99.90
27384;DHT22;14851;51.166;4.760;2024-03-06T02:17:52;5.40;99.90
27384;DHT22;14851;51.166;4.760;2024-03-06T02:20:23;5.40;99.90
27384;DHT22;14851;51.166;4.760;2024-03-06T02:22:49;5.40;99.90
27384;DHT22;14851;51.166;4.760;2024-03-06T02:25:15;5.40;99.90
27384;DHT22;14851;51.166;4.760;2024-03-06T02:27:43;5.40;99.90
27384;DHT22;14851;51.166;4.760;2024-03-06T02:30:10;5.30;99.90
27384;DHT22;14851;51.166;4.760;2024-03-06T02:32:38;5.30;99.90
27384;DHT22;14851;51.166;4.760;2024-03-06T02:35:04;5.30;99.90
27384;DHT22;14851;51.166;4.760;2024-03-06T02:37:34;5.20;99.90
27384;DHT22;14851;51.166;4.760;2024-03-06T02:40:00;5.20;99.90
27384;DHT22;14851;51.166;4.760;2024-03-06T02:42:27;5.10;99.90
27384;DHT22;14851;51.166;4.760;2024-03-06T02:44:53;5.10;99.90
27384;DHT22;14851;51.166;4.760;2024-03-06T02:47:19;5.10;99.90
27384;DHT22;14851;51.166;4.760;2024-03-06T02:49:47;5.10;99.90
27384;DHT22;14851;51.166;4.760;2024-03-06T02:52:13;5.10;99.90
27384;DHT22;14851;51.166;4.760;2024-03-06T02:54:41;5.10;99.90
27384;DHT22;14851;51.166;4.760;2024-03-06T02:57:08;5.10;99.90
27384;DHT22;14851;51.166;4.760;2024-03-06T02:59:36;5.00;99.90
27384;DHT22;14851;51.166;4.760;2024-03-06T03:02:02;5.00;99.90
27384;DHT22;14851;51.166;4.760;2024-03-06T03:04:30;5.00;99.90
27384;DHT22;14851;51.166;4.760;2024-03-06T03:06:58;5.00;99.90
27384;DHT22;14851;51.166;4.760;2024-03-06T03:09:26;5.00;99.90
27384;DHT22;14851;51.166;4.760;2024-03-06T03:11:52;4.90;99.90
27384;DHT22;14851;51.166;4.760;2024-03-06T03:14:18;4.90;99.90
27384;DHT22;14851;51.166;4.760;2024-03-06T03:16:44;4.80;99.90
27384;DHT22;14851;51.166;4.760;2024-03-06T03:19:10;4.70;99.90
27384;DHT22;14851;51.166;4.760;2024-03-06T03:21:38;4.70;99.90
27384;DHT22;14851;51.166;4.760;2024-03-06T03:24:07;4.70;99.90
27384;DHT22;14851;51.166;4.760;2024-03-06T03:26:32;4.60;99.90
27384;DHT22;14851;51.166;4.760;2024-03-06T03:28:58;4.60;99.90
27384;DHT22;14851;51.166;4.760;2024-03-06T03:31:24;4.50;99.90
27384;DHT22;14851;51.166;4.760;2024-03-06T03:33:50;4.50;99.90
27384;DHT22;14851;51.166;4.760;2024-03-06T03:36:16;4.50;99.90
27384;DHT22;14851;51.166;4.760;2024-03-06T03:38:45;4.50;99.90
27384;DHT22;14851;51.166;4.760;2024-03-06T03:41:13;4.50;99.90
27384;DHT22;14851;51.166;4.760;2024-03-06T03:43:42;4.50;99.90
27384;DHT22;14851;51.166;4.760;2024-03-06T03:46:10;4.40;99.90
27384;DHT22;14851;51.166;4.760;2024-03-06T03:48:39;4.40;99.90
27384;DHT22;14851;51.166;4.760;2024-03-06T03:51:05;4.30;99.90
27384;DHT22;14851;51.166;4.760;2024-03-06T03:53:35;4.30;99.90
27384;DHT22;14851;51.166;4.760;2024-03-06T03:56:05;4.30;99.90
27384;DHT22;14851;51.166;4.760;2024-03-06T03:58:32;4.30;99.90
27384;DHT22;14851;51.166;4.760;2024-03-06T04:00:57;4.20;99.90
27384;DHT22;14851;51.166;4.760;2024-03-06T04:03:23;4.20;99.90
27384;DHT22;14851;51.166;4.760;2024-03-06T04:05:50;4.20;99.90
27384;DHT22;14851;51.166;4.760;2024-03-06T04:08:16;4.20;99.90
27384;DHT22;14851;51.166;4.760;2024-03-06T04:10:42;4.20;99.90
27384;DHT22;14851;51.166;4.760;2024-03-06T04:13:14;4.20;99.90
27384;DHT22;14851;51.166;4.760;2024-03-06T04:15:40;4.20;99.90
27384;DHT22;14851;51.166;4.760;2024-03-06T04:18:06;4.20;99.90
27384;DHT22;14851;51.166;4.760;2024-03-06T04:20:32;4.20;99.90
27384;DHT22;14851;51.166;4.760;2024-03-06T04:22:58;4.10;99.90
27384;DHT22;14851;51.166;4.760;2024-03-06T04:25:26;4.00;99.90
27384;DHT22;14851;51.166;4.760;2024-03-06T04:27:54;4.00;99.90
27384;DHT22;14851;51.166;4.760;2024-03-06T04:30:20;4.00;99.90
27384;DHT22;14851;51.166;4.760;2024-03-06T04:32:46;4.00;99.90
27384;DHT22;14851;51.166;4.760;2024-03-06T04:35:12;4.00;99.90
27384;DHT22;14851;51.166;4.760;2024-03-06T04:37:43;4.00;99.90
27384;DHT22;14851;51.166;4.760;2024-03-06T04:40:09;3.90;99.90
27384;DHT22;14851;51.166;4.760;2024-03-06T04:42:36;3.90;99.90
27384;DHT22;14851;51.166;4.760;2024-03-06T04:45:13;3.90;99.90
27384;DHT22;14851;51.166;4.760;2024-03-06T04:47:40;3.90;99.90
27384;DHT22;14851;51.166;4.760;2024-03-06T04:50:12;3.90;99.90
27384;DHT22;14851;51.166;4.760;2024-03-06T04:52:41;3.80;99.90
27384;DHT22;14851;51.166;4.760;2024-03-06T04:55:08;3.80;99.90
27384;DHT22;14851;51.166;4.760;2024-03-06T04:57:42;3.70;99.90
27384;DHT22;14851;51.166;4.760;2024-03-06T05:00:09;3.70;99.90
27384;DHT22;14851;51.166;4.760;2024-03-06T05:02:36;3.70;99.90
27384;DHT22;14851;51.166;4.760;2024-03-06T05:05:03;3.60;99.90
27384;DHT22;14851;51.166;4.760;2024-03-06T05:07:31;3.70;99.90
27384;DHT22;14851;51.166;4.760;2024-03-06T05:09:58;3.60;99.90
27384;DHT22;14851;51.166;4.760;2024-03-06T05:12:27;3.60;99.90
27384;DHT22;14851;51.166;4.760;2024-03-06T05:15:01;3.60;99.90
27384;DHT22;14851;51.166;4.760;2024-03-06T05:17:27;3.60;99.90
27384;DHT22;14851;51.166;4.760;2024-03-06T05:19:53;3.60;99.90
27384;DHT22;14851;51.166;4.760;2024-03-06T05:22:20;3.50;99.90
27384;DHT22;14851;51.166;4.760;2024-03-06T05:24:46;3.50;99.90
27384;DHT22;14851;51.166;4.760;2024-03-06T05:27:12;3.50;99.90
27384;DHT22;14851;51.166;4.760;2024-03-06T05:29:44;3.50;99.90
27384;DHT22;14851;51.166;4.760;2024-03-06T05:32:10;3.40;99.90
27384;DHT22;14851;51.166;4.760;2024-03-06T05:34:36;3.30;99.90
27384;DHT22;14851;51.166;4.760;2024-03-06T05:37:05;3.40;99.90
27384;DHT22;14851;51.166;4.760;2024-03-06T05:39:32;3.40;99.90
27384;DHT22;14851;51.166;4.760;2024-03-06T05:42:02;3.30;99.90
27384;DHT22;14851;51.166;4.760;2024-03-06T05:44:31;3.30;99.90
27384;DHT22;14851;51.166;4.760;2024-03-06T05:47:01;3.30;99.90
27384;DHT22;14851;51.166;4.760;2024-03-06T05:49:28;3.30;99.90
27384;DHT22;14851;51.166;4.760;2024-03-06T05:51:54;3.30;99.90
27384;DHT22;14851;51.166;4.760;2024-03-06T05:54:21;3.30;99.90
27384;DHT22;14851;51.166;4.760;2024-03-06T05:56:50;3.20;99.90
27384;DHT22;14851;51.166;4.760;2024-03-06T05:59:22;3.30;99.90
27384;DHT22;14851;51.166;4.760;2024-03-06T06:01:49;3.20;99.90
27384;DHT22;14851;51.166;4.760;2024-03-06T06:04:15;3.20;99.90
27384;DHT22;14851;51.166;4.760;2024-03-06T06:06:41;3.20;99.90
27384;DHT22;14851;51.166;4.760;2024-03-06T06:09:07;3.20;99.90
27384;DHT22;14851;51.166;4.760;2024-03-06T06:11:39;3.20;99.90
27384;DHT22;14851;51.166;4.760;2024-03-06T06:14:05;3.20;99.90
27384;DHT22;14851;51.166;4.760;2024-03-06T06:16:41;3.20;99.90
27384;DHT22;14851;51.166;4.760;2024-03-06T06:19:08;3.10;99.90
27384;DHT22;14851;51.166;4.760;2024-03-06T06:21:34;3.10;99.90
27384;DHT22;14851;51.166;4.760;2024-03-06T06:24:04;3.10;99.90
27384;DHT22;14851;51.166;4.760;2024-03-06T06:26:32;3.10;99.90
27384;DHT22;14851;51.166;4.760;2024-03-06T06:29:01;3.10;99.90
27384;DHT22;14851;51.166;4.760;2024-03-06T06:31:27;3.10;99.90
27384;DHT22;14851;51.166;4.760;2024-03-06T06:33:53;3.10;99.90
27384;DHT22;14851;51.166;4.760;2024-03-06T06:36:19;3.10;99.90
27384;DHT22;14851;51.166;4.760;2024-03-06T06:38:48;3.10;99.90
27384;DHT22;14851;51.166;4.760;2024-03-06T06:41:17;3.20;99.90
27384;DHT22;14851;51.166;4.760;2024-03-06T06:43:43;3.10;99.90
27384;DHT22;14851;51.166;4.760;2024-03-06T06:46:09;3.10;99.90
27384;DHT22;14851;51.166;4.760;2024-03-06T06:48:34;3.20;99.90
27384;DHT22;14851;51.166;4.760;2024-03-06T06:51:01;3.20;99.90
27384;DHT22;14851;51.166;4.760;2024-03-06T06:53:30;3.20;99.90
27384;DHT22;14851;51.166;4.760;2024-03-06T06:55:57;3.20;99.90
27384;DHT22;14851;51.166;4.760;2024-03-06T06:58:25;3.30;99.90
27384;DHT22;14851;51.166;4.760;2024-03-06T07:00:53;3.30;99.90
27384;DHT22;14851;51.166;4.760;2024-03-06T07:03:21;3.30;99.90
27384;DHT22;14851;51.166;4.760;2024-03-06T07:05:56;3.40;99.90
27384;DHT22;14851;51.166;4.760;2024-03-06T07:08:22;3.50;99.90
27384;DHT22;14851;51.166;4.760;2024-03-06T07:10:51;3.50;99.90
27384;DHT22;14851;51.166;4.760;2024-03-06T07:13:20;3.60;99.90
27384;DHT22;14851;51.166;4.760;2024-03-06T07:15:48;3.60;99.90
27384;DHT22;14851;51.166;4.760;2024-03-06T07:18:14;3.70;99.90
27384;DHT22;14851;51.166;4.760;2024-03-06T07:20:40;3.80;99.90
27384;DHT22;14851;51.166;4.760;2024-03-06T07:23:06;3.90;99.90
27384;DHT22;14851;51.166;4.760;2024-03-06T07:25:32;3.90;99.90
27384;DHT22;14851;51.166;4.760;2024-03-06T07:27:58;4.00;99.90
27384;DHT22;14851;51.166;4.760;2024-03-06T07:30:24;4.10;99.90
27384;DHT22;14851;51.166;4.760;2024-03-06T07:32:50;4.20;99.90
27384;DHT22;14851;51.166;4.760;2024-03-06T07:35:15;4.30;99.90
27384;DHT22;14851;51.166;4.760;2024-03-06T07:37:43;4.30;99.90
27384;DHT22;14851;51.166;4.760;2024-03-06T07:40:11;4.40;99.90
27384;DHT22;14851;51.166;4.760;2024-03-06T07:42:37;4.50;99.90
27384;DHT22;14851;51.166;4.760;2024-03-06T07:45:05;4.50;99.90
27384;DHT22;14851;51.166;4.760;2024-03-06T07:47:36;4.50;99.90
27384;DHT22;14851;51.166;4.760;2024-03-06T07:50:04;4.60;99.90
27384;DHT22;14851;51.166;4.760;2024-03-06T07:52:32;4.60;99.90
27384;DHT22;14851;51.166;4.760;2024-03-06T07:54:57;4.60;99.90
27384;DHT22;14851;51.166;4.760;2024-03-06T07:57:23;4.70;99.90
27384;DHT22;14851;51.166;4.760;2024-03-06T07:59:49;4.70;99.90
27384;DHT22;14851;51.166;4.760;2024-03-06T08:02:17;4.70;99.90
27384;DHT22;14851;51.166;4.760;2024-03-06T08:04:43;4.80;99.90
27384;DHT22;14851;51.166;4.760;2024-03-06T08:07:09;4.80;99.90
27384;DHT22;14851;51.166;4.760;2024-03-06T08:09:35;4.90;99.90
27384;DHT22;14851;51.166;4.760;2024-03-06T08:12:01;4.90;99.90
27384;DHT22;14851;51.166;4.760;2024-03-06T08:14:27;5.00;99.90
27384;DHT22;14851;51.166;4.760;2024-03-06T08:16:53;5.00;99.90
27384;DHT22;14851;51.166;4.760;2024-03-06T08:19:19;5.00;99.90
27384;DHT22;14851;51.166;4.760;2024-03-06T08:21:45;5.10;99.90
27384;DHT22;14851;51.166;4.760;2024-03-06T08:24:12;5.10;99.90
27384;DHT22;14851;51.166;4.760;2024-03-06T08:26:38;5.10;99.90
27384;DHT22;14851;51.166;4.760;2024-03-06T08:29:03;5.20;99.90
27384;DHT22;14851;51.166;4.760;2024-03-06T08:31:30;5.20;99.90
27384;DHT22;14851;51.166;4.760;2024-03-06T08:33:56;5.20;99.90
27384;DHT22;14851;51.166;4.760;2024-03-06T08:36:22;5.20;99.90
27384;DHT22;14851;51.166;4.760;2024-03-06T08:38:49;5.20;99.90
27384;DHT22;14851;51.166;4.760;2024-03-06T08:41:15;5.20;99.90
27384;DHT22;14851;51.166;4.760;2024-03-06T08:43:41;5.30;99.90
27384;DHT22;14851;51.166;4.760;2024-03-06T08:46:07;5.30;99.90
27384;DHT22;14851;51.166;4.760;2024-03-06T08:48:33;5.30;99.90
27384;DHT22;14851;51.166;4.760;2024-03-06T08:50:59;5.30;99.90
27384;DHT22;14851;51.166;4.760;2024-03-06T08:53:30;5.40;99.90
27384;DHT22;14851;51.166;4.760;2024-03-06T08:55:59;5.40;99.90
27384;DHT22;14851;51.166;4.760;2024-03-06T08:58:30;5.40;99.90
27384;DHT22;14851;51.166;4.760;2024-03-06T09:01:02;5.40;99.90
27384;DHT22;14851;51.166;4.760;2024-03-06T09:03:28;5.50;99.90
27384;DHT22;14851;51.166;4.760;2024-03-06T09:05:54;5.50;99.90
27384;DHT22;14851;51.166;4.760;2024-03-06T09:08:25;5.50;99.90
27384;DHT22;14851;51.166;4.760;2024-03-06T09:10:53;5.50;99.90
27384;DHT22;14851;51.166;4.760;2024-03-06T09:13:30;5.60;99.90
27384;DHT22;14851;51.166;4.760;2024-03-06T09:15:56;5.60;99.90
27384;DHT22;14851;51.166;4.760;2024-03-06T09:18:30;5.70;99.90
27384;DHT22;14851;51.166;4.760;2024-03-06T09:21:14;5.70;99.90
27384;DHT22;14851;51.166;4.760;2024-03-06T09:23:54;5.80;99.90
27384;DHT22;14851;51.166;4.760;2024-03-06T09:26:43;5.80;99.90
27384;DHT22;14851;51.166;4.760;2024-03-06T09:29:58;5.80;99.90
27384;DHT22;14851;51.166;4.760;2024-03-06T09:32:32;5.90;99.90
27384;DHT22;14851;51.166;4.760;2024-03-06T09:34:59;5.90;99.90
27384;DHT22;14851;51.166;4.760;2024-03-06T09:37:25;6.00;99.90
27384;DHT22;14851;51.166;4.760;2024-03-06T09:39:51;6.00;99.90
27384;DHT22;14851;51.166;4.760;2024-03-06T09:42:17;6.10;99.90
27384;DHT22;14851;51.166;4.760;2024-03-06T09:44:44;6.20;99.90
27384;DHT22;14851;51.166;4.760;2024-03-06T09:47:13;6.20;99.90
27384;DHT22;14851;51.166;4.760;2024-03-06T09:49:41;6.20;99.90
27384;DHT22;14851;51.166;4.760;2024-03-06T09:52:07;6.20;99.90
27384;DHT22;14851;51.166;4.760;2024-03-06T09:54:33;6.30;99.90
27384;DHT22;14851;51.166;4.760;2024-03-06T09:57:02;6.30;99.90
27384;DHT22;14851;51.166;4.760;2024-03-06T09:59:30;6.40;99.90
27384;DHT22;14851;51.166;4.760;2024-03-06T10:02:00;6.40;99.90
27384;DHT22;14851;51.166;4.760;2024-03-06T10:04:35;6.40;99.90
27384;DHT22;14851;51.166;4.760;2024-03-06T10:07:06;6.50;99.90
27384;DHT22;14851;51.166;4.760;2024-03-06T10:09:39;6.50;99.90
27384;DHT22;14851;51.166;4.760;2024-03-06T10:12:05;6.60;99.90
27384;DHT22;14851;51.166;4.760;2024-03-06T10:14:31;6.60;99.90
27384;DHT22;14851;51.166;4.760;2024-03-06T10:17:02;6.70;99.90
27384;DHT22;14851;51.166;4.760;2024-03-06T10:19:32;6.70;99.90
27384;DHT22;14851;51.166;4.760;2024-03-06T10:22:11;6.80;99.90
27384;DHT22;14851;51.166;4.760;2024-03-06T10:24:48;6.80;99.90
27384;DHT22;14851;51.166;4.760;2024-03-06T10:27:25;6.90;99.90
27384;DHT22;14851;51.166;4.760;2024-03-06T10:30:05;6.90;99.90
27384;DHT22;14851;51.166;4.760;2024-03-06T10:32:36;6.90;99.90
27384;DHT22;14851;51.166;4.760;2024-03-06T10:35:06;6.90;99.90
27384;DHT22;14851;51.166;4.760;2024-03-06T10:37:40;7.00;99.90
27384;DHT22;14851;51.166;4.760;2024-03-06T10:40:15;7.00;99.90
27384;DHT22;14851;51.166;4.760;2024-03-06T10:42:48;7.00;99.90
27384;DHT22;14851;51.166;4.760;2024-03-06T10:51:57;7.10;99.90
27384;DHT22;14851;51.166;4.760;2024-03-06T11:05:39;7.40;99.90
27384;DHT22;14851;51.166;4.760;2024-03-06T11:20:17;7.70;99.90
27384;DHT22;14851;51.166;4.760;2024-03-06T11:27:31;7.80;99.90
27384;DHT22;14851;51.166;4.760;2024-03-06T11:31:09;7.80;99.90
27384;DHT22;14851;51.166;4.760;2024-03-06T11:34:41;7.90;99.90
27384;DHT22;14851;51.166;4.760;2024-03-06T11:37:11;7.90;99.90
27384;DHT22;14851;51.166;4.760;2024-03-06T11:39:41;7.90;99.90
27384;DHT22;14851;51.166;4.760;2024-03-06T11:42:11;7.90;99.90
27384;DHT22;14851;51.166;4.760;2024-03-06T11:45:11;8.00;99.90
27384;DHT22;14851;51.166;4.760;2024-03-06T11:48:08;8.00;99.90
27384;DHT22;14851;51.166;4.760;2024-03-06T11:50:43;8.10;99.90
27384;DHT22;14851;51.166;4.760;2024-03-06T11:53:13;8.10;99.90
27384;DHT22;14851;51.166;4.760;2024-03-06T11:55:39;8.10;99.90
27384;DHT22;14851;51.166;4.760;2024-03-06T11:58:12;8.20;99.90
27384;DHT22;14851;51.166;4.760;2024-03-06T12:00:42;8.20;99.90
27384;DHT22;14851;51.166;4.760;2024-03-06T12:03:25;8.20;99.90
27384;DHT22;14851;51.166;4.760;2024-03-06T12:05:54;8.20;99.90
27384;DHT22;14851;51.166;4.760;2024-03-06T12:08:23;8.30;99.90
27384;DHT22;14851;51.166;4.760;2024-03-06T12:10:52;8.40;99.90
27384;DHT22;14851;51.166;4.760;2024-03-06T12:13:26;8.40;99.90
27384;DHT22;14851;51.166;4.760;2024-03-06T12:16:05;8.40;99.90
27384;DHT22;14851;51.166;4.760;2024-03-06T12:19:01;8.40;99.90
27384;DHT22;14851;51.166;4.760;2024-03-06T12:21:34;8.50;99.90
27384;DHT22;14851;51.166;4.760;2024-03-06T12:24:36;8.50;99.90
27384;DHT22;14851;51.166;4.760;2024-03-06T12:27:08;8.50;99.90
27384;DHT22;14851;51.166;4.760;2024-03-06T12:29:36;8.60;99.90
27384;DHT22;14851;51.166;4.760;2024-03-06T12:32:19;8.70;99.90
27384;DHT22;14851;51.166;4.760;2024-03-06T12:35:01;8.80;99.90
27384;DHT22;14851;51.166;4.760;2024-03-06T12:37:33;8.80;99.90
27384;DHT22;14851;51.166;4.760;2024-03-06T12:40:21;8.90;99.90
27384;DHT22;14851;51.166;4.760;2024-03-06T12:42:57;8.90;99.90
27384;DHT22;14851;51.166;4.760;2024-03-06T12:45:43;9.00;99.90
27384;DHT22;14851;51.166;4.760;2024-03-06T12:48:12;9.10;99.90
27384;DHT22;14851;51.166;4.760;2024-03-06T12:51:00;9.10;99.90
27384;DHT22;14851;51.166;4.760;2024-03-06T12:53:38;9.10;99.90
27384;DHT22;14851;51.166;4.760;2024-03-06T12:56:09;9.20;99.90
27384;DHT22;14851;51.166;4.760;2024-03-06T12:58:35;9.20;99.90
27384;DHT22;14851;51.166;4.760;2024-03-06T13:01:07;9.30;99.90
27384;DHT22;14851;51.166;4.760;2024-03-06T13:03:48;9.40;99.90
27384;DHT22;14851;51.166;4.760;2024-03-06T13:06:22;9.50;99.90
27384;DHT22;14851;51.166;4.760;2024-03-06T13:08:55;9.60;99.90
27384;DHT22;14851;51.166;4.760;2024-03-06T13:11:27;9.80;99.90
27384;DHT22;14851;51.166;4.760;2024-03-06T13:14:02;9.90;99.90
27384;DHT22;14851;51.166;4.760;2024-03-06T13:16:28;10.10;99.90
27384;DHT22;14851;51.166;4.760;2024-03-06T13:18:57;10.20;99.90
27384;DHT22;14851;51.166;4.760;2024-03-06T13:21:29;10.30;99.90
27384;DHT22;14851;51.166;4.760;2024-03-06T13:30:20;10.30;99.90
27384;DHT22;14851;51.166;4.760;2024-03-06T13:36:19;10.40;99.90
27384;DHT22;14851;51.166;4.760;2024-03-06T13:38:47;10.40;99.90
27384;DHT22;14851;51.166;4.760;2024-03-06T13:41:16;10.40;99.90
27384;DHT22;14851;51.166;4.760;2024-03-06T13:46:28;10.50;99.90
27384;DHT22;14851;51.166;4.760;2024-03-06T13:48:57;10.50;99.90
27384;DHT22;14851;51.166;4.760;2024-03-06T13:51:30;10.60;99.90
27384;DHT22;14851;51.166;4.760;2024-03-06T13:54:11;10.60;99.90
27384;DHT22;14851;51.166;4.760;2024-03-06T13:56:48;10.60;99.90
27384;DHT22;14851;51.166;4.760;2024-03-06T14:00:03;10.70;99.90
27384;DHT22;14851;51.166;4.760;2024-03-06T14:03:18;10.80;99.90
27384;DHT22;14851;51.166;4.760;2024-03-06T14:06:34;10.80;99.90
27384;DHT22;14851;51.166;4.760;2024-03-06T14:09:04;10.90;99.90
27384;DHT22;14851;51.166;4.760;2024-03-06T14:11:33;10.90;99.90
27384;DHT22;14851;51.166;4.760;2024-03-06T14:14:15;11.00;99.90
27384;DHT22;14851;51.166;4.760;2024-03-06T14:17:43;11.00;99.90
27384;DHT22;14851;51.166;4.760;2024-03-06T14:20:39;11.00;99.90
27384;DHT22;14851;51.166;4.760;2024-03-06T14:24:25;11.00;99.90
27384;DHT22;14851;51.166;4.760;2024-03-06T14:31:35;11.10;99.90
27384;DHT22;14851;51.166;4.760;2024-03-06T14:34:48;11.20;99.90
27384;DHT22;14851;51.166;4.760;2024-03-06T14:37:30;11.30;99.90
27384;DHT22;14851;51.166;4.760;2024-03-06T14:48:38;11.50;99.90
27384;DHT22;14851;51.166;4.760;2024-03-06T14:52:07;11.50;99.90
27384;DHT22;14851;51.166;4.760;2024-03-06T15:11:42;11.70;99.90
27384;DHT22;14851;51.166;4.760;2024-03-06T15:14:43;11.80;99.90
27384;DHT22;14851;51.166;4.760;2024-03-06T15:21:51;11.80;99.90
27384;DHT22;14851;51.166;4.760;2024-03-06T15:43:17;11.90;99.90
27384;DHT22;14851;51.166;4.760;2024-03-06T15:47:05;11.80;99.90
27384;DHT22;14851;51.166;4.760;2024-03-06T16:20:08;11.80;99.90
27384;DHT22;14851;51.166;4.760;2024-03-06T16:34:48;11.50;99.90
27384;DHT22;14851;51.166;4.760;2024-03-06T17:24:11;10.10;99.90
27384;DHT22;14851;51.166;4.760;2024-03-06T17:35:47;9.70;99.90
27384;DHT22;14851;51.166;4.760;2024-03-06T17:38:49;9.60;99.90
27384;DHT22;14851;51.166;4.760;2024-03-06T17:52:59;9.20;99.90
27384;DHT22;14851;51.166;4.760;2024-03-06T17:56:00;9.10;99.90
27384;DHT22;14851;51.166;4.760;2024-03-06T17:59:37;9.00;99.90
27384;DHT22;14851;51.166;4.760;2024-03-06T18:02:51;9.00;99.90
27384;DHT22;14851;51.166;4.760;2024-03-06T18:09:12;8.80;99.90
27384;DHT22;14851;51.166;4.760;2024-03-06T18:15:07;8.70;99.90
27384;DHT22;14851;51.166;4.760;2024-03-06T18:18:18;8.60;99.90
27384;DHT22;14851;51.166;4.760;2024-03-06T18:29:20;8.30;99.90
27384;DHT22;14851;51.166;4.760;2024-03-06T18:35:58;8.20;99.90
27384;DHT22;14851;51.166;4.760;2024-03-06T18:39:50;8.20;99.90
27384;DHT22;14851;51.166;4.760;2024-03-06T18:54:31;7.90;99.90
27384;DHT22;14851;51.166;4.760;2024-03-06T19:00:47;7.70;99.90
27384;DHT22;14851;51.166;4.760;2024-03-06T19:07:06;7.60;99.90
27384;DHT22;14851;51.166;4.760;2024-03-06T19:10:02;7.60;99.90
27384;DHT22;14851;51.166;4.760;2024-03-06T19:13:11;7.60;99.90
27384;DHT22;14851;51.166;4.760;2024-03-06T19:20:33;7.50;99.90
27384;DHT22;14851;51.166;4.760;2024-03-06T19:24:37;7.50;99.90
27384;DHT22;14851;51.166;4.760;2024-03-06T19:27:09;7.40;99.90
27384;DHT22;14851;51.166;4.760;2024-03-06T19:30:20;7.40;99.90
27384;DHT22;14851;51.166;4.760;2024-03-06T19:33:10;7.30;99.90
27384;DHT22;14851;51.166;4.760;2024-03-06T19:35:39;7.30;99.90
27384;DHT22;14851;51.166;4.760;2024-03-06T19:38:14;7.20;99.90
27384;DHT22;14851;51.166;4.760;2024-03-06T19:40:43;7.10;99.90
27384;DHT22;14851;51.166;4.760;2024-03-06T19:43:15;7.10;99.90
27384;DHT22;14851;51.166;4.760;2024-03-06T19:45:41;7.00;99.90
27384;DHT22;14851;51.166;4.760;2024-03-06T19:48:21;7.00;99.90
27384;DHT22;14851;51.166;4.760;2024-03-06T19:50:56;6.90;99.90
27384;DHT22;14851;51.166;4.760;2024-03-06T19:53:33;6.90;99.90
27384;DHT22;14851;51.166;4.760;2024-03-06T19:56:11;6.80;99.90
27384;DHT22;14851;51.166;4.760;2024-03-06T19:58:44;6.80;99.90
27384;DHT22;14851;51.166;4.760;2024-03-06T20:01:18;6.80;99.90
27384;DHT22;14851;51.166;4.760;2024-03-06T20:04:02;6.80;99.90
27384;DHT22;14851;51.166;4.760;2024-03-06T20:07:19;6.80;99.90
27384;DHT22;14851;51.166;4.760;2024-03-06T20:10:37;6.80;99.90
27384;DHT22;14851;51.166;4.760;2024-03-06T20:13:38;6.70;99.90
27384;DHT22;14851;51.166;4.760;2024-03-06T20:18:42;6.60;99.90
27384;DHT22;14851;51.166;4.760;2024-03-06T20:21:08;6.60;99.90
27384;DHT22;14851;51.166;4.760;2024-03-06T20:23:55;6.50;99.90
27384;DHT22;14851;51.166;4.760;2024-03-06T20:26:24;6.50;99.90
27384;DHT22;14851;51.166;4.760;2024-03-06T20:29:05;6.50;99.90
27384;DHT22;14851;51.166;4.760;2024-03-06T20:31:43;6.50;99.90
27384;DHT22;14851;51.166;4.760;2024-03-06T20:34:33;6.40;99.90
27384;DHT22;14851;51.166;4.760;2024-03-06T20:37:09;6.40;99.90
27384;DHT22;14851;51.166;4.760;2024-03-06T20:39:43;6.30;99.90